sensor_id;sensor_type;location;lat;lon;timestamp;pressure;altitude;pressure_sealevel;temperature;humidity
69630;BME280;56857;52.212;5.496;2023-04-28T00:02:05;101455.84;;;8.85;100.00
69630;BME280;56857;52.212;5.496;2023-04-28T00:04:30;101460.44;;;8.82;100.00
69630;BME280;56857;52.212;5.496;2023-04-28T00:06:56;101470.19;;;8.82;100.00
69630;BME280;56857;52.212;5.496;2023-04-28T00:09:21;101479.22;;;8.79;100.00
69630;BME280;56857;52.212;5.496;2023-04-28T00:11:46;101465.47;;;8.76;100.00
69630;BME280;56857;52.212;5.496;2023-04-28T00:14:12;101467.28;;;8.75;100.00
69630;BME280;56857;52.212;5.496;2023-04-28T00:16:38;101464.63;;;8.75;100.00
69630;BME280;56857;52.212;5.496;2023-04-28T00:19:03;101447.13;;;8.74;100.00
69630;BME280;56857;52.212;5.496;2023-04-28T00:21:29;101443.47;;;8.75;100.00
69630;BME280;56857;52.212;5.496;2023-04-28T00:23:54;101442.53;;;8.76;100.00
69630;BME280;56857;52.212;5.496;2023-04-28T00:26:19;101439.19;;;8.74;100.00
69630;BME280;56857;52.212;5.496;2023-04-28T00:28:45;101443.63;;;8.74;100.00
69630;BME280;56857;52.212;5.496;2023-04-28T00:31:12;101433.19;;;8.72;100.00
69630;BME280;56857;52.212;5.496;2023-04-28T00:33:39;101428.91;;;8.71;100.00
69630;BME280;56857;52.212;5.496;2023-04-28T00:36:05;101428.06;;;8.71;100.00
69630;BME280;56857;52.212;5.496;2023-04-28T00:38:30;101421.78;;;8.72;100.00
69630;BME280;56857;52.212;5.496;2023-04-28T00:40:56;101415.69;;;8.71;100.00
69630;BME280;56857;52.212;5.496;2023-04-28T00:43:21;101414.97;;;8.69;100.00
69630;BME280;56857;52.212;5.496;2023-04-28T00:45:50;101406.50;;;8.66;100.00
69630;BME280;56857;52.212;5.496;2023-04-28T00:48:17;101412.63;;;8.66;100.00
69630;BME280;56857;52.212;5.496;2023-04-28T00:50:43;101405.97;;;8.62;100.00
69630;BME280;56857;52.212;5.496;2023-04-28T00:53:10;101402.50;;;8.62;100.00
69630;BME280;56857;52.212;5.496;2023-04-28T00:55:36;101405.41;;;8.58;100.00
69630;BME280;56857;52.212;5.496;2023-04-28T00:58:01;101405.53;;;8.57;100.00
69630;BME280;56857;52.212;5.496;2023-04-28T01:00:27;101411.81;;;8.56;100.00
69630;BME280;56857;52.212;5.496;2023-04-28T01:02:54;101408.34;;;8.55;100.00
69630;BME280;56857;52.212;5.496;2023-04-28T01:05:19;101413.75;;;8.54;100.00
69630;BME280;56857;52.212;5.496;2023-04-28T01:07:44;101401.81;;;8.50;100.00
69630;BME280;56857;52.212;5.496;2023-04-28T01:10:10;101399.59;;;8.45;100.00
69630;BME280;56857;52.212;5.496;2023-04-28T01:12:35;101395.72;;;8.40;100.00
69630;BME280;56857;52.212;5.496;2023-04-28T01:15:00;101398.06;;;8.43;100.00
69630;BME280;56857;52.212;5.496;2023-04-28T01:17:26;101383.50;;;8.39;100.00
69630;BME280;56857;52.212;5.496;2023-04-28T01:19:52;101388.78;;;8.39;100.00
69630;BME280;56857;52.212;5.496;2023-04-28T01:22:17;101393.19;;;8.38;100.00
69630;BME280;56857;52.212;5.496;2023-04-28T01:24:43;101391.50;;;8.37;100.00
69630;BME280;56857;52.212;5.496;2023-04-28T01:27:08;101390.69;;;8.36;100.00
69630;BME280;56857;52.212;5.496;2023-04-28T01:29:33;101375.94;;;8.34;100.00
69630;BME280;56857;52.212;5.496;2023-04-28T01:31:59;101375.81;;;8.35;100.00
69630;BME280;56857;52.212;5.496;2023-04-28T01:34:25;101374.13;;;8.34;100.00
69630;BME280;56857;52.212;5.496;2023-04-28T01:36:50;101375.25;;;8.32;100.00
69630;BME280;56857;52.212;5.496;2023-04-28T01:39:16;101368.31;;;8.31;100.00
69630;BME280;56857;52.212;5.496;2023-04-28T01:41:41;101369.13;;;8.31;100.00
69630;BME280;56857;52.212;5.496;2023-04-28T01:44:07;101370.94;;;8.31;100.00
69630;BME280;56857;52.212;5.496;2023-04-28T01:46:33;101364.00;;;8.30;100.00
69630;BME280;56857;52.212;5.496;2023-04-28T01:48:58;101359.00;;;8.27;100.00
69630;BME280;56857;52.212;5.496;2023-04-28T01:51:24;101351.91;;;8.27;100.00
69630;BME280;56857;52.212;5.496;2023-04-28T01:53:49;101353.03;;;8.25;100.00
69630;BME280;56857;52.212;5.496;2023-04-28T01:56:14;101351.38;;;8.24;100.00
69630;BME280;56857;52.212;5.496;2023-04-28T01:58:40;101355.53;;;8.26;100.00
69630;BME280;56857;52.212;5.496;2023-04-28T02:01:05;101345.09;;;8.25;100.00
69630;BME280;56857;52.212;5.496;2023-04-28T02:03:30;101349.56;;;8.24;100.00
69630;BME280;56857;52.212;5.496;2023-04-28T02:05:56;101350.38;;;8.25;100.00
69630;BME280;56857;52.212;5.496;2023-04-28T02:08:22;101345.09;;;8.25;100.00
69630;BME280;56857;52.212;5.496;2023-04-28T02:10:47;101346.38;;;8.21;100.00
69630;BME280;56857;52.212;5.496;2023-04-28T02:13:13;101342.06;;;8.20;100.00
69630;BME280;56857;52.212;5.496;2023-04-28T02:15:41;101337.63;;;8.20;100.00
69630;BME280;56857;52.212;5.496;2023-04-28T02:18:08;101339.56;;;8.18;100.00
69630;BME280;56857;52.212;5.496;2023-04-28T02:20:33;101334.28;;;8.18;100.00
69630;BME280;56857;52.212;5.496;2023-04-28T02:22:59;101336.78;;;8.20;100.00
69630;BME280;56857;52.212;5.496;2023-04-28T02:25:24;101332.63;;;8.17;100.00
69630;BME280;56857;52.212;5.496;2023-04-28T02:27:49;101332.63;;;8.17;100.00
69630;BME280;56857;52.212;5.496;2023-04-28T02:30:15;101321.34;;;8.15;100.00
69630;BME280;56857;52.212;5.496;2023-04-28T02:32:40;101318.00;;;8.13;100.00
69630;BME280;56857;52.212;5.496;2023-04-28T02:35:06;101309.25;;;8.12;100.00
69630;BME280;56857;52.212;5.496;2023-04-28T02:37:31;101307.31;;;8.15;100.00
69630;BME280;56857;52.212;5.496;2023-04-28T02:39:57;101306.34;;;8.16;100.00
69630;BME280;56857;52.212;5.496;2023-04-28T02:42:22;101304.81;;;8.13;100.00
69630;BME280;56857;52.212;5.496;2023-04-28T02:44:47;101300.38;;;8.13;100.00
69630;BME280;56857;52.212;5.496;2023-04-28T02:47:13;101300.22;;;8.15;100.00
69630;BME280;56857;52.212;5.496;2023-04-28T02:49:38;101302.88;;;8.15;100.00
69630;BME280;56857;52.212;5.496;2023-04-28T02:52:03;101286.03;;;8.16;100.00
69630;BME280;56857;52.212;5.496;2023-04-28T02:54:29;101283.38;;;8.16;100.00
69630;BME280;56857;52.212;5.496;2023-04-28T02:56:55;101287.03;;;8.15;100.00
69630;BME280;56857;52.212;5.496;2023-04-28T02:59:22;101281.63;;;8.17;100.00
69630;BME280;56857;52.212;5.496;2023-04-28T03:01:47;101274.50;;;8.17;100.00
69630;BME280;56857;52.212;5.496;2023-04-28T03:04:14;101273.00;;;8.15;100.00
69630;BME280;56857;52.212;5.496;2023-04-28T03:06:40;101263.25;;;8.15;100.00
69630;BME280;56857;52.212;5.496;2023-04-28T03:09:06;101255.34;;;8.15;100.00
69630;BME280;56857;52.212;5.496;2023-04-28T03:11:32;101254.34;;;8.16;100.00
69630;BME280;56857;52.212;5.496;2023-04-28T03:13:57;101255.88;;;8.19;100.00
69630;BME280;56857;52.212;5.496;2023-04-28T03:16:22;101248.94;;;8.18;100.00
69630;BME280;56857;52.212;5.496;2023-04-28T03:18:48;101246.41;;;8.16;100.00
69630;BME280;56857;52.212;5.496;2023-04-28T03:21:13;101242.69;;;8.09;100.00
69630;BME280;56857;52.212;5.496;2023-04-28T03:23:38;101244.63;;;8.07;100.00
69630;BME280;56857;52.212;5.496;2023-04-28T03:26:04;101244.50;;;8.08;100.00
69630;BME280;56857;52.212;5.496;2023-04-28T03:28:29;101233.41;;;8.05;100.00
69630;BME280;56857;52.212;5.496;2023-04-28T03:30:54;101233.00;;;8.00;100.00
69630;BME280;56857;52.212;5.496;2023-04-28T03:33:21;101229.25;;;8.02;100.00
69630;BME280;56857;52.212;5.496;2023-04-28T03:35:46;101229.78;;;8.06;100.00
69630;BME280;56857;52.212;5.496;2023-04-28T03:38:12;101234.78;;;8.09;100.00
69630;BME280;56857;52.212;5.496;2023-04-28T03:40:37;101232.69;;;8.12;100.00
69630;BME280;56857;52.212;5.496;2023-04-28T03:43:02;101226.28;;;8.15;100.00
69630;BME280;56857;52.212;5.496;2023-04-28T03:45:27;101219.72;;;8.19;100.00
69630;BME280;56857;52.212;5.496;2023-04-28T03:47:53;101216.13;;;8.20;100.00
69630;BME280;56857;52.212;5.496;2023-04-28T03:50:18;101210.84;;;8.20;100.00
69630;BME280;56857;52.212;5.496;2023-04-28T03:52:43;101212.66;;;8.20;100.00
69630;BME280;56857;52.212;5.496;2023-04-28T03:55:09;101202.09;;;8.20;100.00
69630;BME280;56857;52.212;5.496;2023-04-28T03:57:34;101195.28;;;8.17;100.00
69630;BME280;56857;52.212;5.496;2023-04-28T03:59:59;101190.13;;;8.16;100.00
69630;BME280;56857;52.212;5.496;2023-04-28T04:02:25;101181.94;;;8.19;100.00
69630;BME280;56857;52.212;5.496;2023-04-28T04:04:50;101184.56;;;8.19;100.00
69630;BME280;56857;52.212;5.496;2023-04-28T04:07:15;101174.84;;;8.19;100.00
69630;BME280;56857;52.212;5.496;2023-04-28T04:09:41;101185.94;;;8.23;100.00
69630;BME280;56857;52.212;5.496;2023-04-28T04:12:06;101192.59;;;8.27;100.00
69630;BME280;56857;52.212;5.496;2023-04-28T04:14:31;101189.69;;;8.30;100.00
69630;BME280;56857;52.212;5.496;2023-04-28T04:16:57;101185.22;;;8.30;100.00
69630;BME280;56857;52.212;5.496;2023-04-28T04:19:22;101170.19;;;8.31;100.00
69630;BME280;56857;52.212;5.496;2023-04-28T04:21:47;101175.19;;;8.34;100.00
69630;BME280;56857;52.212;5.496;2023-04-28T04:24:13;101177.84;;;8.34;100.00
69630;BME280;56857;52.212;5.496;2023-04-28T04:26:38;101176.84;;;8.35;100.00
69630;BME280;56857;52.212;5.496;2023-04-28T04:29:04;101174.91;;;8.37;100.00
69630;BME280;56857;52.212;5.496;2023-04-28T04:31:31;101162.69;;;8.36;100.00
69630;BME280;56857;52.212;5.496;2023-04-28T04:33:56;101174.81;;;8.39;100.00
69630;BME280;56857;52.212;5.496;2023-04-28T04:36:22;101172.00;;;8.40;100.00
69630;BME280;56857;52.212;5.496;2023-04-28T04:38:47;101161.97;;;8.44;100.00
69630;BME280;56857;52.212;5.496;2023-04-28T04:41:12;101162.66;;;8.46;100.00
69630;BME280;56857;52.212;5.496;2023-04-28T04:43:38;101157.91;;;8.49;100.00
69630;BME280;56857;52.212;5.496;2023-04-28T04:46:03;101160.38;;;8.51;100.00
69630;BME280;56857;52.212;5.496;2023-04-28T04:48:29;101159.25;;;8.53;100.00
69630;BME280;56857;52.212;5.496;2023-04-28T04:50:54;101156.63;;;8.53;100.00
69630;BME280;56857;52.212;5.496;2023-04-28T04:53:19;101148.56;;;8.55;100.00
69630;BME280;56857;52.212;5.496;2023-04-28T04:55:46;101149.09;;;8.58;100.00
69630;BME280;56857;52.212;5.496;2023-04-28T04:58:11;101148.25;;;8.58;100.00
69630;BME280;56857;52.212;5.496;2023-04-28T05:00:36;101143.63;;;8.60;100.00
69630;BME280;56857;52.212;5.496;2023-04-28T05:03:02;101151.13;;;8.65;100.00
69630;BME280;56857;52.212;5.496;2023-04-28T05:05:27;101144.72;;;8.67;100.00
69630;BME280;56857;52.212;5.496;2023-04-28T05:07:52;101150.03;;;8.67;100.00
69630;BME280;56857;52.212;5.496;2023-04-28T05:10:18;101138.16;;;8.71;100.00
69630;BME280;56857;52.212;5.496;2023-04-28T05:12:43;101141.50;;;8.73;100.00
69630;BME280;56857;52.212;5.496;2023-04-28T05:15:10;101148.13;;;8.77;100.00
69630;BME280;56857;52.212;5.496;2023-04-28T05:17:37;101139.50;;;8.75;100.00
69630;BME280;56857;52.212;5.496;2023-04-28T05:20:02;101142.97;;;8.76;100.00
69630;BME280;56857;52.212;5.496;2023-04-28T05:22:27;101139.69;;;8.74;100.00
69630;BME280;56857;52.212;5.496;2023-04-28T05:24:53;101150.09;;;8.75;100.00
69630;BME280;56857;52.212;5.496;2023-04-28T05:27:18;101147.00;;;8.80;100.00
69630;BME280;56857;52.212;5.496;2023-04-28T05:29:44;101141.25;;;8.85;100.00
69630;BME280;56857;52.212;5.496;2023-04-28T05:32:09;101136.50;;;8.88;100.00
69630;BME280;56857;52.212;5.496;2023-04-28T05:34:34;101132.88;;;8.89;100.00
69630;BME280;56857;52.212;5.496;2023-04-28T05:37:00;101137.19;;;8.90;100.00
69630;BME280;56857;52.212;5.496;2023-04-28T05:39:26;101143.28;;;8.91;100.00
69630;BME280;56857;52.212;5.496;2023-04-28T05:41:52;101136.34;;;8.90;100.00
69630;BME280;56857;52.212;5.496;2023-04-28T05:44:17;101137.19;;;8.90;100.00
69630;BME280;56857;52.212;5.496;2023-04-28T05:46:43;101138.19;;;8.89;100.00
69630;BME280;56857;52.212;5.496;2023-04-28T05:49:09;101139.81;;;8.90;100.00
69630;BME280;56857;52.212;5.496;2023-04-28T05:51:34;101148.75;;;8.89;100.00
69630;BME280;56857;52.212;5.496;2023-04-28T05:53:59;101154.16;;;8.88;100.00
69630;BME280;56857;52.212;5.496;2023-04-28T05:56:26;101159.63;;;8.86;100.00
69630;BME280;56857;52.212;5.496;2023-04-28T05:58:51;101162.41;;;8.85;100.00
69630;BME280;56857;52.212;5.496;2023-04-28T06:01:17;101159.63;;;8.86;100.00
69630;BME280;56857;52.212;5.496;2023-04-28T06:03:42;101147.22;;;8.87;100.00
69630;BME280;56857;52.212;5.496;2023-04-28T06:06:08;101132.50;;;8.84;100.00
69630;BME280;56857;52.212;5.496;2023-04-28T06:08:34;101131.97;;;8.80;100.00
69630;BME280;56857;52.212;5.496;2023-04-28T06:10:59;101121.84;;;8.76;100.00
69630;BME280;56857;52.212;5.496;2023-04-28T06:13:24;101119.50;;;8.73;100.00
69630;BME280;56857;52.212;5.496;2023-04-28T06:15:50;101123.81;;;8.74;100.00
69630;BME280;56857;52.212;5.496;2023-04-28T06:18:15;101116.72;;;8.74;100.00
69630;BME280;56857;52.212;5.496;2023-04-28T06:20:41;101120.19;;;8.75;100.00
69630;BME280;56857;52.212;5.496;2023-04-28T06:23:06;101113.53;;;8.71;100.00
69630;BME280;56857;52.212;5.496;2023-04-28T06:25:32;101109.22;;;8.70;100.00
69630;BME280;56857;52.212;5.496;2023-04-28T06:27:57;101111.25;;;8.76;100.00
69630;BME280;56857;52.212;5.496;2023-04-28T06:30:23;101108.00;;;8.82;100.00
69630;BME280;56857;52.212;5.496;2023-04-28T06:32:48;101112.25;;;8.93;100.00
69630;BME280;56857;52.212;5.496;2023-04-28T06:35:15;101099.91;;;9.01;100.00
69630;BME280;56857;52.212;5.496;2023-04-28T06:37:41;101097.88;;;9.13;100.00
69630;BME280;56857;52.212;5.496;2023-04-28T06:40:07;101098.84;;;9.30;100.00
69630;BME280;56857;52.212;5.496;2023-04-28T06:42:32;101091.84;;;9.47;100.00
69630;BME280;56857;52.212;5.496;2023-04-28T06:44:57;101098.03;;;9.64;100.00
69630;BME280;56857;52.212;5.496;2023-04-28T06:47:23;101099.28;;;9.78;100.00
69630;BME280;56857;52.212;5.496;2023-04-28T06:49:48;101090.53;;;9.85;100.00
69630;BME280;56857;52.212;5.496;2023-04-28T06:52:13;101106.81;;;9.90;100.00
69630;BME280;56857;52.212;5.496;2023-04-28T06:54:39;101102.00;;;9.94;100.00
69630;BME280;56857;52.212;5.496;2023-04-28T06:57:04;101108.19;;;10.03;100.00
69630;BME280;56857;52.212;5.496;2023-04-28T06:59:29;101105.22;;;10.14;100.00
69630;BME280;56857;52.212;5.496;2023-04-28T07:01:55;101104.94;;;10.25;100.00
69630;BME280;56857;52.212;5.496;2023-04-28T07:04:20;101104.84;;;10.35;100.00
69630;BME280;56857;52.212;5.496;2023-04-28T07:06:45;101105.69;;;10.43;100.00
69630;BME280;56857;52.212;5.496;2023-04-28T07:09:11;101104.69;;;10.53;100.00
69630;BME280;56857;52.212;5.496;2023-04-28T07:11:36;101101.94;;;10.62;100.00
69630;BME280;56857;52.212;5.496;2023-04-28T07:14:01;101093.47;;;10.67;100.00
69630;BME280;56857;52.212;5.496;2023-04-28T07:16:27;101093.00;;;10.80;100.00
69630;BME280;56857;52.212;5.496;2023-04-28T07:18:52;101094.00;;;10.95;100.00
69630;BME280;56857;52.212;5.496;2023-04-28T07:21:18;101094.00;;;11.11;100.00
69630;BME280;56857;52.212;5.496;2023-04-28T07:23:44;101098.47;;;11.27;100.00
69630;BME280;56857;52.212;5.496;2023-04-28T07:26:09;101099.78;;;11.40;100.00
69630;BME280;56857;52.212;5.496;2023-04-28T07:28:36;101104.06;;;11.41;100.00
69630;BME280;56857;52.212;5.496;2023-04-28T07:31:01;101097.59;;;11.43;100.00
69630;BME280;56857;52.212;5.496;2023-04-28T07:33:27;101099.09;;;11.46;100.00
69630;BME280;56857;52.212;5.496;2023-04-28T07:35:52;101100.91;;;11.53;100.00
69630;BME280;56857;52.212;5.496;2023-04-28T07:38:18;101089.25;;;11.63;100.00
69630;BME280;56857;52.212;5.496;2023-04-28T07:40:43;101087.41;;;11.71;100.00
69630;BME280;56857;52.212;5.496;2023-04-28T07:43:09;101081.56;;;11.84;100.00
69630;BME280;56857;52.212;5.496;2023-04-28T07:45:38;101088.38;;;11.95;100.00
69630;BME280;56857;52.212;5.496;2023-04-28T07:48:04;101088.00;;;11.98;100.00
69630;BME280;56857;52.212;5.496;2023-04-28T07:50:29;101090.66;;;11.98;100.00
69630;BME280;56857;52.212;5.496;2023-04-28T07:52:55;101087.84;;;11.99;100.00
69630;BME280;56857;52.212;5.496;2023-04-28T07:55:20;101084.31;;;12.07;100.00
69630;BME280;56857;52.212;5.496;2023-04-28T07:57:46;101075.09;;;12.26;100.00
69630;BME280;56857;52.212;5.496;2023-04-28T08:00:11;101073.66;;;12.46;100.00
69630;BME280;56857;52.212;5.496;2023-04-28T08:02:37;101069.94;;;12.56;100.00
69630;BME280;56857;52.212;5.496;2023-04-28T08:05:02;101076.53;;;12.60;100.00
69630;BME280;56857;52.212;5.496;2023-04-28T08:07:28;101075.34;;;12.70;100.00
69630;BME280;56857;52.212;5.496;2023-04-28T08:09:53;101065.38;;;12.87;100.00
69630;BME280;56857;52.212;5.496;2023-04-28T08:12:18;101066.53;;;13.08;100.00
69630;BME280;56857;52.212;5.496;2023-04-28T08:14:43;101061.72;;;13.26;100.00
69630;BME280;56857;52.212;5.496;2023-04-28T08:17:09;101066.53;;;13.31;100.00
69630;BME280;56857;52.212;5.496;2023-04-28T08:19:34;101064.69;;;13.31;100.00
69630;BME280;56857;52.212;5.496;2023-04-28T08:21:59;101073.28;;;13.33;100.00
69630;BME280;56857;52.212;5.496;2023-04-28T08:24:25;101075.69;;;13.28;100.00
69630;BME280;56857;52.212;5.496;2023-04-28T08:26:50;101074.75;;;13.21;100.00
69630;BME280;56857;52.212;5.496;2023-04-28T08:29:15;101072.13;;;13.13;100.00
69630;BME280;56857;52.212;5.496;2023-04-28T08:31:41;101078.38;;;13.05;100.00
69630;BME280;56857;52.212;5.496;2023-04-28T08:34:06;101076.91;;;13.03;100.00
69630;BME280;56857;52.212;5.496;2023-04-28T08:36:31;101080.06;;;12.98;100.00
69630;BME280;56857;52.212;5.496;2023-04-28T08:38:59;101086.13;;;12.92;100.00
69630;BME280;56857;52.212;5.496;2023-04-28T08:41:24;101083.53;;;12.84;100.00
69630;BME280;56857;52.212;5.496;2023-04-28T08:43:50;101084.88;;;12.80;100.00
69630;BME280;56857;52.212;5.496;2023-04-28T08:46:17;101080.47;;;12.72;100.00
69630;BME280;56857;52.212;5.496;2023-04-28T08:48:45;101080.34;;;12.65;100.00
69630;BME280;56857;52.212;5.496;2023-04-28T08:51:15;101077.38;;;12.60;100.00
69630;BME280;56857;52.212;5.496;2023-04-28T08:53:49;101075.53;;;12.61;100.00
69630;BME280;56857;52.212;5.496;2023-04-28T08:56:15;101070.06;;;12.62;100.00
69630;BME280;56857;52.212;5.496;2023-04-28T08:58:40;101074.00;;;12.66;100.00
69630;BME280;56857;52.212;5.496;2023-04-28T09:01:05;101071.81;;;12.70;100.00
69630;BME280;56857;52.212;5.496;2023-04-28T09:03:31;101074.59;;;12.76;100.00
69630;BME280;56857;52.212;5.496;2023-04-28T09:05:56;101071.22;;;12.83;100.00
69630;BME280;56857;52.212;5.496;2023-04-28T09:08:22;101069.88;;;12.87;100.00
69630;BME280;56857;52.212;5.496;2023-04-28T09:10:47;101058.69;;;12.91;100.00
69630;BME280;56857;52.212;5.496;2023-04-28T09:13:24;101065.78;;;12.99;100.00
69630;BME280;56857;52.212;5.496;2023-04-28T09:15:58;101059.75;;;13.05;100.00
69630;BME280;56857;52.212;5.496;2023-04-28T09:18:24;101060.66;;;13.12;100.00
69630;BME280;56857;52.212;5.496;2023-04-28T09:20:49;101052.13;;;13.17;100.00
69630;BME280;56857;52.212;5.496;2023-04-28T09:23:19;101048.75;;;13.23;100.00
69630;BME280;56857;52.212;5.496;2023-04-28T09:26:14;101048.94;;;13.21;100.00
69630;BME280;56857;52.212;5.496;2023-04-28T09:28:40;101040.25;;;13.28;100.00
69630;BME280;56857;52.212;5.496;2023-04-28T09:31:05;101058.03;;;13.27;100.00
69630;BME280;56857;52.212;5.496;2023-04-28T09:33:30;101048.25;;;13.28;100.00
69630;BME280;56857;52.212;5.496;2023-04-28T09:35:56;101052.91;;;13.26;100.00
69630;BME280;56857;52.212;5.496;2023-04-28T09:38:22;101056.09;;;13.21;100.00
69630;BME280;56857;52.212;5.496;2023-04-28T09:40:59;101054.34;;;13.13;100.00
69630;BME280;56857;52.212;5.496;2023-04-28T09:43:33;101063.84;;;13.08;100.00
69630;BME280;56857;52.212;5.496;2023-04-28T09:46:01;101057.09;;;13.05;100.00
69630;BME280;56857;52.212;5.496;2023-04-28T09:48:32;101051.09;;;13.03;100.00
69630;BME280;56857;52.212;5.496;2023-04-28T09:51:00;101049.47;;;13.02;100.00
69630;BME280;56857;52.212;5.496;2023-04-28T09:53:26;101047.63;;;13.03;100.00
69630;BME280;56857;52.212;5.496;2023-04-28T09:55:53;101050.09;;;13.04;100.00
69630;BME280;56857;52.212;5.496;2023-04-28T09:58:20;101052.84;;;13.11;100.00
69630;BME280;56857;52.212;5.496;2023-04-28T10:00:50;101037.63;;;13.19;100.00
69630;BME280;56857;52.212;5.496;2023-04-28T10:03:16;101044.84;;;13.34;100.00
69630;BME280;56857;52.212;5.496;2023-04-28T10:05:43;101039.63;;;13.40;100.00
69630;BME280;56857;52.212;5.496;2023-04-28T10:08:09;101038.91;;;13.47;100.00
69630;BME280;56857;52.212;5.496;2023-04-28T10:10:36;101043.66;;;13.51;100.00
69630;BME280;56857;52.212;5.496;2023-04-28T10:13:02;101036.78;;;13.57;100.00
69630;BME280;56857;52.212;5.496;2023-04-28T10:15:27;101042.75;;;13.59;100.00
69630;BME280;56857;52.212;5.496;2023-04-28T10:17:53;101041.75;;;13.60;100.00
69630;BME280;56857;52.212;5.496;2023-04-28T10:20:19;101036.41;;;13.60;100.00
69630;BME280;56857;52.212;5.496;2023-04-28T10:25:53;101042.56;;;13.60;100.00
69630;BME280;56857;52.212;5.496;2023-04-28T10:28:21;101038.25;;;13.59;100.00
69630;BME280;56857;52.212;5.496;2023-04-28T10:31:12;101044.56;;;13.58;100.00
69630;BME280;56857;52.212;5.496;2023-04-28T10:33:38;101040.91;;;13.59;100.00
69630;BME280;56857;52.212;5.496;2023-04-28T10:36:05;101046.59;;;13.56;100.00
69630;BME280;56857;52.212;5.496;2023-04-28T10:38:30;101050.91;;;13.57;100.00
69630;BME280;56857;52.212;5.496;2023-04-28T10:40:56;101050.25;;;13.55;100.00
69630;BME280;56857;52.212;5.496;2023-04-28T10:48:21;101044.31;;;13.53;100.00
69630;BME280;56857;52.212;5.496;2023-04-28T10:56:24;101047.06;;;13.60;100.00
69630;BME280;56857;52.212;5.496;2023-04-28T10:59:23;101052.19;;;13.61;100.00
69630;BME280;56857;52.212;5.496;2023-04-28T11:01:49;101045.88;;;13.62;100.00
69630;BME280;56857;52.212;5.496;2023-04-28T11:04:15;101047.16;;;13.66;100.00
69630;BME280;56857;52.212;5.496;2023-04-28T11:06:42;101051.91;;;13.71;100.00
69630;BME280;56857;52.212;5.496;2023-04-28T11:16:51;101047.78;;;13.83;100.00
69630;BME280;56857;52.212;5.496;2023-04-28T11:19:22;101044.38;;;13.89;100.00
69630;BME280;56857;52.212;5.496;2023-04-28T11:21:48;101045.66;;;13.94;100.00
69630;BME280;56857;52.212;5.496;2023-04-28T11:24:13;101041.16;;;13.94;100.00
69630;BME280;56857;52.212;5.496;2023-04-28T11:26:40;101037.66;;;13.94;100.00
69630;BME280;56857;52.212;5.496;2023-04-28T11:29:31;101041.31;;;13.93;100.00
69630;BME280;56857;52.212;5.496;2023-04-28T11:32:15;101039.31;;;13.95;100.00
69630;BME280;56857;52.212;5.496;2023-04-28T11:35:01;101039.75;;;13.98;100.00
69630;BME280;56857;52.212;5.496;2023-04-28T11:38:00;101036.34;;;14.04;100.00
69630;BME280;56857;52.212;5.496;2023-04-28T11:40:56;101035.88;;;14.16;100.00
69630;BME280;56857;52.212;5.496;2023-04-28T11:43:42;101034.91;;;14.23;100.00
69630;BME280;56857;52.212;5.496;2023-04-28T11:46:28;101029.09;;;14.34;100.00
69630;BME280;56857;52.212;5.496;2023-04-28T11:49:13;101034.44;;;14.34;100.00
69630;BME280;56857;52.212;5.496;2023-04-28T11:52:06;101035.50;;;14.40;100.00
69630;BME280;56857;52.212;5.496;2023-04-28T11:54:56;101033.28;;;14.44;100.00
69630;BME280;56857;52.212;5.496;2023-04-28T11:57:42;101037.22;;;14.48;100.00
69630;BME280;56857;52.212;5.496;2023-04-28T12:00:28;101039.00;;;14.41;100.00
69630;BME280;56857;52.212;5.496;2023-04-28T12:03:14;101036.72;;;14.37;100.00
69630;BME280;56857;52.212;5.496;2023-04-28T12:06:00;101037.94;;;14.35;100.00
69630;BME280;56857;52.212;5.496;2023-04-28T12:08:47;101038.09;;;14.33;100.00
69630;BME280;56857;52.212;5.496;2023-04-28T12:11:33;101040.59;;;14.35;100.00
69630;BME280;56857;52.212;5.496;2023-04-28T12:14:19;101041.66;;;14.41;100.00
69630;BME280;56857;52.212;5.496;2023-04-28T12:17:05;101042.66;;;14.54;100.00
69630;BME280;56857;52.212;5.496;2023-04-28T12:19:51;101032.09;;;14.68;100.00
69630;BME280;56857;52.212;5.496;2023-04-28T12:22:48;101039.56;;;14.72;100.00
69630;BME280;56857;52.212;5.496;2023-04-28T12:25:42;101040.75;;;14.70;100.00
69630;BME280;56857;52.212;5.496;2023-04-28T12:28:38;101043.16;;;14.65;100.00
69630;BME280;56857;52.212;5.496;2023-04-28T12:31:24;101039.41;;;14.59;100.00
69630;BME280;56857;52.212;5.496;2023-04-28T12:34:09;101042.03;;;14.52;100.00
69630;BME280;56857;52.212;5.496;2023-04-28T12:36:55;101041.09;;;14.60;100.00
69630;BME280;56857;52.212;5.496;2023-04-28T12:39:43;101041.53;;;14.64;100.00
69630;BME280;56857;52.212;5.496;2023-04-28T12:42:29;101039.63;;;14.57;100.00
69630;BME280;56857;52.212;5.496;2023-04-28T12:45:15;101047.34;;;14.52;100.00
69630;BME280;56857;52.212;5.496;2023-04-28T12:48:01;101045.03;;;14.49;100.00
69630;BME280;56857;52.212;5.496;2023-04-28T12:50:46;101042.28;;;14.57;100.00
69630;BME280;56857;52.212;5.496;2023-04-28T12:53:32;101044.81;;;14.66;100.00
69630;BME280;56857;52.212;5.496;2023-04-28T12:56:18;101045.06;;;14.71;100.00
69630;BME280;56857;52.212;5.496;2023-04-28T12:59:04;101050.63;;;14.69;100.00
69630;BME280;56857;52.212;5.496;2023-04-28T13:01:49;101042.78;;;14.68;100.00
69630;BME280;56857;52.212;5.496;2023-04-28T13:04:35;101046.09;;;14.70;100.00
69630;BME280;56857;52.212;5.496;2023-04-28T13:07:21;101047.84;;;14.84;100.00
69630;BME280;56857;52.212;5.496;2023-04-28T13:10:07;101047.78;;;14.99;100.00
69630;BME280;56857;52.212;5.496;2023-04-28T13:12:53;101040.84;;;15.04;100.00
69630;BME280;56857;52.212;5.496;2023-04-28T13:15:41;101039.44;;;15.09;100.00